createdAt,value
2023-04-29T00:00:09.873Z,89.30
2023-04-29T00:02:36.998Z,89.30
2023-04-29T00:05:05.463Z,89.30
2023-04-29T00:07:32.524Z,89.00
2023-04-29T00:10:00.418Z,89.00
2023-04-29T00:12:28.116Z,89.00
2023-04-29T00:14:56.186Z,88.90
2023-04-29T00:17:25.901Z,89.10
2023-04-29T00:19:54.262Z,88.90
2023-04-29T00:22:23.627Z,89.00
2023-04-29T00:24:50.920Z,89.00
2023-04-29T00:27:17.860Z,89.10
2023-04-29T00:29:44.770Z,89.00
2023-04-29T00:32:12.034Z,88.90
2023-04-29T00:34:39.257Z,89.20
2023-04-29T00:37:05.960Z,89.30
2023-04-29T00:39:34.374Z,89.30
2023-04-29T00:42:01.051Z,89.30
2023-04-29T00:44:29.084Z,89.40
2023-04-29T00:46:55.894Z,89.50
2023-04-29T00:49:23.076Z,89.50
2023-04-29T00:51:52.665Z,89.60
2023-04-29T00:54:19.723Z,89.60
2023-04-29T00:56:47.235Z,89.60
2023-04-29T00:59:15.868Z,89.50
2023-04-29T01:01:42.724Z,89.60
2023-04-29T01:04:10.158Z,89.50
2023-04-29T01:06:51.198Z,89.30
2023-04-29T01:09:42.061Z,89.30
2023-04-29T01:12:08.775Z,89.30
2023-04-29T01:14:39.508Z,89.20
2023-04-29T01:17:10.782Z,89.00
2023-04-29T01:19:52.862Z,89.20
2023-04-29T01:22:22.067Z,89.10
2023-04-29T01:24:49.983Z,88.90
2023-04-29T01:27:20.126Z,88.90
2023-04-29T01:29:59.661Z,88.80
2023-04-29T01:32:30.101Z,88.80
2023-04-29T01:34:56.718Z,88.80
2023-04-29T01:37:42.828Z,88.60
2023-04-29T01:40:19.696Z,88.50
2023-04-29T01:42:56.773Z,88.60
2023-04-29T01:45:24.297Z,88.60
2023-04-29T01:47:53.079Z,88.70
2023-04-29T01:50:19.982Z,88.70
2023-04-29T01:52:46.958Z,88.70
2023-04-29T01:55:13.557Z,88.90
2023-04-29T01:57:40.218Z,88.90
2023-04-29T02:00:07.271Z,89.10
2023-04-29T02:02:41.153Z,89.30
2023-04-29T02:05:09.332Z,89.60
2023-04-29T02:07:35.963Z,89.60
2023-04-29T02:10:04.821Z,89.40
2023-04-29T02:12:32.094Z,89.20
2023-04-29T02:15:00.727Z,89.20
2023-04-29T02:17:30.101Z,89.10
2023-04-29T02:19:58.353Z,89.30
2023-04-29T02:22:25.909Z,89.40
2023-04-29T02:24:52.786Z,89.50
2023-04-29T02:27:19.796Z,89.60
2023-04-29T02:29:47.100Z,89.70
2023-04-29T02:32:16.119Z,89.80
2023-04-29T02:34:43.667Z,89.60
2023-04-29T02:37:11.300Z,89.50
2023-04-29T02:39:38.770Z,89.60
2023-04-29T02:42:05.889Z,89.60
2023-04-29T02:44:34.767Z,89.60
2023-04-29T02:47:03.785Z,89.50
2023-04-29T02:49:31.821Z,89.40
2023-04-29T02:52:01.031Z,89.30
2023-04-29T02:54:30.138Z,89.20
2023-04-29T02:56:57.943Z,89.10
2023-04-29T02:59:24.857Z,89.10
2023-04-29T03:01:51.692Z,89.10
2023-04-29T03:04:19.836Z,89.40
2023-04-29T03:06:47.217Z,89.50
2023-04-29T03:09:14.492Z,89.50
2023-04-29T03:11:41.507Z,89.40
2023-04-29T03:14:08.681Z,89.30
2023-04-29T03:16:35.658Z,89.10
2023-04-29T03:19:03.520Z,89.00
2023-04-29T03:21:30.234Z,88.80
2023-04-29T03:23:57.119Z,88.80
2023-04-29T03:26:24.503Z,88.80
2023-04-29T03:28:51.908Z,88.90
2023-04-29T03:31:23.122Z,89.00
2023-04-29T03:33:53.159Z,88.90
2023-04-29T03:36:20.994Z,88.90
2023-04-29T03:38:47.868Z,88.80
2023-04-29T03:41:14.948Z,88.70
2023-04-29T03:43:44.041Z,88.50
2023-04-29T03:46:11.140Z,88.60
2023-04-29T03:48:38.856Z,88.80
2023-04-29T03:51:08.182Z,89.40
2023-04-29T03:53:35.120Z,89.50
2023-04-29T03:56:02.155Z,89.60
2023-04-29T03:58:30.127Z,89.80
2023-04-29T04:00:56.987Z,90.00
2023-04-29T04:03:25.816Z,90.30
2023-04-29T04:05:52.826Z,90.70
2023-04-29T04:08:19.707Z,90.50
2023-04-29T04:10:49.588Z,90.50
2023-04-29T04:13:16.511Z,90.50
2023-04-29T04:15:50.385Z,90.40
2023-04-29T04:18:17.565Z,90.30
2023-04-29T04:20:44.248Z,90.10
2023-04-29T04:23:12.577Z,90.20
2023-04-29T04:25:44.691Z,90.40
2023-04-29T04:28:13.225Z,90.40
2023-04-29T04:30:42.460Z,90.40
2023-04-29T04:33:10.713Z,90.50
2023-04-29T04:35:38.970Z,90.70
2023-04-29T04:38:05.776Z,90.70
2023-04-29T04:40:37.704Z,90.60
2023-04-29T04:43:04.513Z,90.50
2023-04-29T04:45:31.609Z,90.40
2023-04-29T04:47:59.013Z,90.40
2023-04-29T04:50:27.977Z,90.40
2023-04-29T04:52:55.806Z,90.50
2023-04-29T04:55:24.224Z,90.50
2023-04-29T04:57:53.743Z,90.30
2023-04-29T05:00:22.426Z,89.90
2023-04-29T05:02:58.932Z,89.50
2023-04-29T05:05:31.174Z,89.00
2023-04-29T05:08:05.591Z,88.50
2023-04-29T05:10:35.827Z,88.20
2023-04-29T05:13:02.887Z,88.10
2023-04-29T05:15:31.214Z,88.00
2023-04-29T05:18:02.020Z,87.80
2023-04-29T05:20:29.132Z,87.80
2023-04-29T05:22:58.243Z,87.50
2023-04-29T05:25:24.946Z,87.50
2023-04-29T05:27:54.107Z,87.30
2023-04-29T05:30:23.406Z,87.10
2023-04-29T05:32:51.399Z,86.60
2023-04-29T05:35:19.266Z,86.80
2023-04-29T05:37:46.196Z,86.50
2023-04-29T05:40:14.671Z,86.10
2023-04-29T05:42:48.649Z,85.70
2023-04-29T05:45:18.290Z,85.50
2023-04-29T05:47:46.803Z,85.90
2023-04-29T05:50:13.591Z,85.60
2023-04-29T05:52:40.634Z,84.80
2023-04-29T05:55:10.204Z,84.00
2023-04-29T05:57:38.072Z,83.50
2023-04-29T06:00:07.117Z,83.10
2023-04-29T06:02:41.595Z,82.50
2023-04-29T06:05:19.149Z,82.10
2023-04-29T06:07:47.370Z,81.50
2023-04-29T06:10:15.306Z,81.10
2023-04-29T06:12:42.288Z,80.90
2023-04-29T06:15:15.461Z,80.40
2023-04-29T06:17:42.595Z,80.00
2023-04-29T06:20:10.697Z,80.40
2023-04-29T06:22:37.613Z,80.20
2023-04-29T06:25:05.688Z,79.40
2023-04-29T06:27:32.782Z,78.50
2023-04-29T06:29:59.856Z,79.50
2023-04-29T06:32:29.516Z,79.80
2023-04-29T06:35:04.850Z,79.70
2023-04-29T06:37:31.815Z,79.20
2023-04-29T06:40:00.811Z,79.80
2023-04-29T06:42:37.249Z,80.10
2023-04-29T06:45:07.283Z,80.00
2023-04-29T06:47:37.218Z,78.10
2023-04-29T06:50:05.236Z,78.90
2023-04-29T06:52:35.696Z,76.90
2023-04-29T06:55:04.746Z,78.40
2023-04-29T06:57:34.056Z,77.10
2023-04-29T07:00:00.922Z,77.80
2023-04-29T07:02:27.862Z,76.00
2023-04-29T07:04:57.676Z,76.20
2023-04-29T07:07:25.027Z,76.00
2023-04-29T07:09:53.749Z,75.10
2023-04-29T07:12:20.937Z,75.90
2023-04-29T07:14:49.257Z,74.90
2023-04-29T07:17:18.140Z,75.10
2023-04-29T07:19:46.626Z,74.10
2023-04-29T07:22:13.487Z,74.80
2023-04-29T07:24:40.567Z,74.60
2023-04-29T07:27:07.506Z,73.90
2023-04-29T07:29:35.427Z,73.50
2023-04-29T07:32:06.356Z,71.40
2023-04-29T07:34:34.863Z,71.50
2023-04-29T07:37:01.547Z,71.70
2023-04-29T07:39:29.809Z,69.60
2023-04-29T07:41:56.472Z,70.10
2023-04-29T07:44:26.274Z,69.80
2023-04-29T07:46:53.076Z,69.10
2023-04-29T07:49:19.926Z,68.10
2023-04-29T07:51:46.767Z,68.90
2023-04-29T07:54:13.584Z,68.40
2023-04-29T07:56:40.154Z,70.20
2023-04-29T07:59:06.816Z,67.10
2023-04-29T08:01:33.450Z,67.90
2023-04-29T08:04:00.340Z,68.60
2023-04-29T08:06:27.201Z,66.00
2023-04-29T08:08:53.848Z,63.00
2023-04-29T08:11:21.345Z,63.20
2023-04-29T08:13:50.351Z,66.90
2023-04-29T08:16:17.034Z,66.00
2023-04-29T08:18:43.772Z,66.80
2023-04-29T08:21:13.882Z,66.40
2023-04-29T08:23:40.681Z,63.60
2023-04-29T08:26:08.222Z,65.60
2023-04-29T08:28:34.864Z,59.10
2023-04-29T08:31:01.568Z,63.90
2023-04-29T08:33:29.538Z,61.00
2023-04-29T08:36:02.597Z,61.10
2023-04-29T08:38:32.382Z,62.60
2023-04-29T08:40:59.184Z,62.30
2023-04-29T08:43:27.479Z,62.10
2023-04-29T08:45:54.966Z,61.70
2023-04-29T08:48:22.186Z,60.40
2023-04-29T08:50:48.847Z,61.40
2023-04-29T08:53:16.101Z,61.60
2023-04-29T08:55:47.308Z,60.30
2023-04-29T08:58:14.706Z,59.80
2023-04-29T09:00:50.766Z,63.10
2023-04-29T09:03:38.940Z,59.80
2023-04-29T09:06:06.637Z,61.40
2023-04-29T09:08:35.449Z,63.20
2023-04-29T09:11:09.321Z,60.40
2023-04-29T09:13:36.100Z,62.00
2023-04-29T09:16:03.567Z,60.40
2023-04-29T09:18:46.019Z,59.60
2023-04-29T09:21:19.666Z,59.80
2023-04-29T09:23:55.383Z,59.30
2023-04-29T09:26:22.811Z,59.90
2023-04-29T09:29:16.575Z,57.60
2023-04-29T09:31:43.688Z,58.50
2023-04-29T09:34:14.897Z,58.10
2023-04-29T09:36:45.100Z,56.70
2023-04-29T09:39:17.421Z,58.40
2023-04-29T09:41:52.396Z,58.70
2023-04-29T09:44:23.673Z,58.50
2023-04-29T09:46:58.747Z,59.10
2023-04-29T09:49:28.152Z,56.60
2023-04-29T09:51:56.385Z,57.80
2023-04-29T09:54:24.354Z,57.80
2023-04-29T09:56:53.315Z,56.70
2023-04-29T09:59:20.202Z,55.40
2023-04-29T10:01:51.069Z,56.50
2023-04-29T10:04:22.482Z,53.80
2023-04-29T10:06:50.521Z,53.60
2023-04-29T10:09:19.469Z,53.10
2023-04-29T10:11:47.823Z,54.20
2023-04-29T10:14:22.489Z,55.00
2023-04-29T10:16:52.096Z,55.70
2023-04-29T10:19:20.297Z,56.90
2023-04-29T10:21:50.601Z,57.90
2023-04-29T10:24:17.937Z,56.60
2023-04-29T10:26:47.046Z,58.60
2023-04-29T10:29:16.599Z,58.90
2023-04-29T10:31:44.193Z,57.10
2023-04-29T10:34:12.163Z,57.10
2023-04-29T10:36:43.348Z,54.70
2023-04-29T10:39:18.821Z,54.70
2023-04-29T10:41:49.201Z,52.70
2023-04-29T10:44:22.205Z,53.90
2023-04-29T10:46:49.107Z,53.30
2023-04-29T10:49:21.772Z,56.30
2023-04-29T10:51:50.482Z,54.80
2023-04-29T10:54:19.877Z,56.10
2023-04-29T10:56:53.977Z,51.40
2023-04-29T10:59:24.143Z,53.20
2023-04-29T11:01:53.246Z,51.60
2023-04-29T11:04:22.102Z,49.40
2023-04-29T11:06:54.001Z,53.40
2023-04-29T11:09:22.240Z,54.00
2023-04-29T11:11:55.260Z,54.00
2023-04-29T11:14:44.481Z,54.00
2023-04-29T11:17:15.981Z,54.60
2023-04-29T11:19:46.220Z,54.20
2023-04-29T11:22:18.883Z,55.70
2023-04-29T11:24:54.601Z,54.10
2023-04-29T11:27:25.442Z,52.00
2023-04-29T11:29:58.209Z,54.70
2023-04-29T11:32:26.532Z,54.40
2023-04-29T11:35:14.921Z,55.10
2023-04-29T11:37:45.559Z,54.40
2023-04-29T11:40:14.125Z,53.30
2023-04-29T11:42:41.666Z,52.10
2023-04-29T11:45:14.505Z,51.60
2023-04-29T11:47:46.339Z,50.70
2023-04-29T11:50:24.294Z,50.10
2023-04-29T11:52:54.241Z,49.10
2023-04-29T11:55:22.456Z,51.30
2023-04-29T11:57:49.768Z,49.80
2023-04-29T12:00:16.973Z,48.60
2023-04-29T12:02:44.740Z,50.90
2023-04-29T12:05:15.352Z,50.20
2023-04-29T12:07:42.844Z,48.00
2023-04-29T12:10:12.109Z,50.70
2023-04-29T12:12:40.927Z,51.60
2023-04-29T12:15:11.660Z,51.90
2023-04-29T12:17:41.913Z,49.40
2023-04-29T12:20:10.625Z,46.30
2023-04-29T12:22:37.775Z,50.40
2023-04-29T12:25:08.380Z,46.50
2023-04-29T12:27:42.014Z,48.90
2023-04-29T12:30:10.033Z,49.40
2023-04-29T12:32:37.448Z,48.40
2023-04-29T12:35:06.075Z,46.90
2023-04-29T12:37:35.673Z,48.40
2023-04-29T12:40:02.592Z,44.90
2023-04-29T12:42:36.822Z,47.10
2023-04-29T12:45:04.321Z,48.10
2023-04-29T12:47:39.608Z,48.10
2023-04-29T12:50:07.955Z,47.00
2023-04-29T12:52:36.605Z,48.20
2023-04-29T12:55:07.137Z,48.80
2023-04-29T12:57:33.821Z,47.40
2023-04-29T13:00:10.479Z,48.10
2023-04-29T13:02:39.761Z,48.60
2023-04-29T13:05:07.727Z,49.10
2023-04-29T13:07:34.924Z,49.90
2023-04-29T13:10:05.961Z,51.40
2023-04-29T13:12:34.477Z,46.70
2023-04-29T13:15:01.261Z,48.10
2023-04-29T13:17:28.840Z,49.00
2023-04-29T13:20:01.178Z,49.10
2023-04-29T13:22:28.413Z,48.20
2023-04-29T13:24:59.655Z,46.40
2023-04-29T13:27:28.656Z,46.00
2023-04-29T13:29:56.577Z,46.80
2023-04-29T13:32:25.074Z,46.60
2023-04-29T13:34:54.441Z,46.40
2023-04-29T13:37:22.990Z,45.60
2023-04-29T13:39:57.193Z,45.00
2023-04-29T13:42:26.945Z,45.90
2023-04-29T13:44:59.117Z,46.10
2023-04-29T13:47:31.193Z,44.90
2023-04-29T13:50:46.246Z,44.40
2023-04-29T14:01:01.328Z,48.40
2023-04-29T14:03:14.456Z,47.40
2023-04-29T14:05:45.656Z,50.40
2023-04-29T14:08:12.817Z,45.80
2023-04-29T14:10:39.971Z,48.80
2023-04-29T14:13:08.323Z,48.60
2023-04-29T14:15:37.692Z,47.20
2023-04-29T14:18:11.674Z,44.90
2023-04-29T14:20:40.516Z,47.30
2023-04-29T14:23:07.167Z,50.20
2023-04-29T14:25:35.242Z,48.70
2023-04-29T14:28:07.184Z,47.80
2023-04-29T14:30:34.547Z,46.70
2023-04-29T14:33:04.868Z,47.90
2023-04-29T14:35:34.386Z,47.50
2023-04-29T14:38:06.978Z,48.10
2023-04-29T14:40:36.966Z,47.70
2023-04-29T14:43:04.558Z,46.10
2023-04-29T14:45:32.580Z,47.70
2023-04-29T14:48:01.798Z,44.60
2023-04-29T14:50:36.221Z,46.10
2023-04-29T14:53:03.049Z,47.50
2023-04-29T14:55:32.921Z,48.40
2023-04-29T14:57:59.673Z,48.80
2023-04-29T15:00:27.718Z,47.50
2023-04-29T15:03:04.617Z,48.60
2023-04-29T15:05:38.595Z,48.50
2023-04-29T15:08:05.688Z,48.20
2023-04-29T15:10:32.556Z,48.10
2023-04-29T15:12:59.479Z,47.40
2023-04-29T15:15:27.581Z,46.00
2023-04-29T15:17:54.524Z,45.60
2023-04-29T15:20:23.728Z,47.70
2023-04-29T15:22:51.994Z,46.10
2023-04-29T15:25:19.294Z,46.70
2023-04-29T15:27:48.411Z,48.10
2023-04-29T15:30:15.329Z,47.90
2023-04-29T15:32:42.096Z,47.60
2023-04-29T15:35:08.991Z,51.90
2023-04-29T15:37:35.639Z,49.70
2023-04-29T15:40:02.398Z,50.60
2023-04-29T15:42:29.432Z,48.50
2023-04-29T15:44:56.255Z,49.10
2023-04-29T15:47:23.192Z,50.20
2023-04-29T15:49:52.559Z,49.80
2023-04-29T15:52:19.929Z,50.80
2023-04-29T15:54:51.439Z,50.10
2023-04-29T15:57:18.091Z,49.70
2023-04-29T15:59:45.547Z,50.70
2023-04-29T16:02:12.220Z,52.60
2023-04-29T16:04:39.383Z,53.30
2023-04-29T16:07:08.371Z,53.70
2023-04-29T16:09:35.840Z,53.00
2023-04-29T16:12:02.776Z,52.00
2023-04-29T16:14:30.336Z,52.00
2023-04-29T16:16:57.868Z,52.50
2023-04-29T16:19:24.958Z,53.70
2023-04-29T16:21:53.961Z,54.30
2023-04-29T16:24:24.309Z,55.40
2023-04-29T16:26:53.832Z,54.50
2023-04-29T16:29:26.541Z,55.30
2023-04-29T16:31:53.871Z,56.60
2023-04-29T16:34:24.539Z,58.40
2023-04-29T16:36:53.239Z,57.10
2023-04-29T16:39:20.454Z,56.40
2023-04-29T16:41:48.040Z,56.30
2023-04-29T16:44:14.962Z,57.10
2023-04-29T16:46:42.063Z,58.70
2023-04-29T16:49:09.008Z,57.10
2023-04-29T16:51:35.899Z,57.20
2023-04-29T16:54:03.794Z,58.40
2023-04-29T16:56:30.765Z,59.70
2023-04-29T16:58:57.752Z,59.00
2023-04-29T17:01:24.771Z,59.00
2023-04-29T17:03:51.510Z,58.60
2023-04-29T17:06:18.558Z,58.10
2023-04-29T17:08:45.823Z,60.60
2023-04-29T17:11:12.715Z,59.60
2023-04-29T17:13:39.420Z,59.20
2023-04-29T17:16:07.218Z,59.30
2023-04-29T17:18:34.266Z,61.70
2023-04-29T17:21:00.976Z,62.20
2023-04-29T17:23:27.998Z,59.90
2023-04-29T17:25:55.699Z,60.20
2023-04-29T17:28:23.900Z,60.80
2023-04-29T17:30:51.749Z,60.70
2023-04-29T17:33:18.474Z,60.40
2023-04-29T17:35:46.182Z,60.50
2023-04-29T17:38:14.234Z,61.80
2023-04-29T17:40:41.050Z,61.70
2023-04-29T17:43:15.544Z,61.70
2023-04-29T17:45:42.120Z,63.00
2023-04-29T17:48:08.835Z,62.90
2023-04-29T17:50:39.480Z,62.50
2023-04-29T17:53:06.384Z,63.70
2023-04-29T17:55:33.527Z,64.80
2023-04-29T17:58:00.434Z,62.40
2023-04-29T18:00:30.779Z,62.90
2023-04-29T18:02:57.499Z,64.20
2023-04-29T18:05:24.263Z,66.30
2023-04-29T18:07:51.276Z,65.20
2023-04-29T18:10:18.007Z,65.50
2023-04-29T18:12:44.851Z,65.90
2023-04-29T18:15:14.243Z,65.20
2023-04-29T18:17:40.912Z,65.80
2023-04-29T18:20:08.402Z,65.40
2023-04-29T18:22:36.171Z,67.00
2023-04-29T18:25:03.931Z,68.70
2023-04-29T18:27:31.056Z,69.50
2023-04-29T18:29:57.773Z,70.10
2023-04-29T18:32:25.185Z,69.40
2023-04-29T18:34:52.059Z,69.50
2023-04-29T18:37:18.919Z,70.80
2023-04-29T18:39:46.779Z,69.70
2023-04-29T18:42:13.753Z,69.10
2023-04-29T18:44:41.576Z,70.60
2023-04-29T18:47:12.878Z,69.60
2023-04-29T18:49:39.672Z,70.20
2023-04-29T18:52:06.688Z,71.40
2023-04-29T18:54:36.056Z,72.30
2023-04-29T18:57:02.781Z,72.30
2023-04-29T18:59:29.912Z,73.50
2023-04-29T19:01:56.672Z,73.90
2023-04-29T19:04:23.935Z,74.10
2023-04-29T19:06:50.625Z,73.70
2023-04-29T19:09:17.351Z,73.90
2023-04-29T19:11:44.541Z,74.10
2023-04-29T19:14:11.490Z,72.60
2023-04-29T19:16:38.273Z,74.30
2023-04-29T19:19:05.303Z,72.70
2023-04-29T19:21:33.751Z,74.20
2023-04-29T19:24:00.476Z,73.20
2023-04-29T19:26:28.922Z,72.50
2023-04-29T19:28:55.535Z,72.20
2023-04-29T19:31:23.320Z,72.20
2023-04-29T19:33:52.006Z,72.50
2023-04-29T19:36:19.060Z,73.20
2023-04-29T19:38:46.975Z,73.30
2023-04-29T19:41:13.690Z,73.00
2023-04-29T19:43:40.433Z,73.20
2023-04-29T19:46:07.206Z,74.10
2023-04-29T19:48:33.983Z,73.70
2023-04-29T19:51:01.202Z,73.10
2023-04-29T19:53:28.131Z,73.10
2023-04-29T19:55:55.136Z,73.30
2023-04-29T19:58:22.027Z,73.70
2023-04-29T20:00:48.799Z,73.40
2023-04-29T20:03:16.101Z,73.60
2023-04-29T20:05:43.518Z,74.30
2023-04-29T20:08:10.226Z,74.50
2023-04-29T20:10:38.243Z,74.60
2023-04-29T20:13:04.901Z,74.60
2023-04-29T20:15:31.712Z,74.40
2023-04-29T20:17:58.788Z,74.70
2023-04-29T20:20:28.685Z,75.00
2023-04-29T20:22:58.084Z,75.10
2023-04-29T20:25:27.974Z,75.10
2023-04-29T20:27:56.989Z,75.10
2023-04-29T20:30:24.180Z,75.50
2023-04-29T20:32:50.917Z,75.30
2023-04-29T20:35:18.568Z,75.10
2023-04-29T20:37:45.962Z,75.30
2023-04-29T20:40:13.121Z,75.40
2023-04-29T20:42:40.130Z,75.50
2023-04-29T20:45:07.272Z,75.30
2023-04-29T20:47:36.060Z,75.60
2023-04-29T20:50:04.654Z,75.30
2023-04-29T20:52:31.411Z,75.20
2023-04-29T20:54:58.961Z,75.60
2023-04-29T20:57:26.378Z,76.10
2023-04-29T20:59:53.612Z,75.90
2023-04-29T21:02:22.193Z,76.10
2023-04-29T21:04:49.161Z,76.00
2023-04-29T21:07:15.824Z,76.70
2023-04-29T21:09:42.541Z,76.30
2023-04-29T21:12:09.871Z,76.30
2023-04-29T21:14:41.486Z,76.20
2023-04-29T21:17:11.531Z,76.60
2023-04-29T21:19:39.029Z,76.20
2023-04-29T21:22:05.851Z,76.60
2023-04-29T21:24:32.596Z,76.50
2023-04-29T21:26:59.473Z,76.90
2023-04-29T21:29:26.209Z,77.00
2023-04-29T21:31:53.174Z,77.50
2023-04-29T21:34:20.011Z,77.10
2023-04-29T21:36:47.949Z,77.40
2023-04-29T21:39:14.866Z,77.90
2023-04-29T21:41:43.139Z,77.70
2023-04-29T21:44:10.069Z,78.10
2023-04-29T21:46:39.547Z,77.00
2023-04-29T21:49:06.544Z,76.20
2023-04-29T21:51:36.495Z,77.90
2023-04-29T21:54:08.820Z,76.60
2023-04-29T21:56:35.877Z,76.80
2023-04-29T21:59:03.175Z,77.00
2023-04-29T22:01:48.134Z,78.30
2023-04-29T22:04:16.881Z,79.10
2023-04-29T22:06:44.023Z,79.10
2023-04-29T22:09:11.086Z,78.30
2023-04-29T22:11:38.819Z,79.20
2023-04-29T22:14:05.594Z,79.30
2023-04-29T22:16:35.091Z,79.80
2023-04-29T22:19:02.022Z,79.90
2023-04-29T22:21:29.513Z,79.80
2023-04-29T22:23:57.481Z,80.40
2023-04-29T22:26:26.175Z,80.70
2023-04-29T22:28:53.192Z,81.00
2023-04-29T22:31:23.301Z,80.50
2023-04-29T22:33:51.006Z,80.00
2023-04-29T22:36:19.087Z,80.30
2023-04-29T22:38:47.028Z,80.50
2023-04-29T22:41:14.791Z,80.20
2023-04-29T22:43:41.898Z,80.70
2023-04-29T22:46:11.691Z,80.40
2023-04-29T22:48:38.465Z,80.40
2023-04-29T22:51:05.820Z,80.40
2023-04-29T22:53:33.497Z,81.30
2023-04-29T22:56:00.744Z,81.70
2023-04-29T22:58:27.513Z,81.70
2023-04-29T23:00:56.873Z,82.20
2023-04-29T23:03:24.166Z,81.50
2023-04-29T23:05:51.347Z,81.20
2023-04-29T23:08:18.439Z,81.90
2023-04-29T23:10:51.190Z,80.90
2023-04-29T23:13:17.842Z,80.50
2023-04-29T23:15:45.095Z,80.40
2023-04-29T23:18:12.624Z,80.50
2023-04-29T23:20:39.400Z,80.20
2023-04-29T23:23:09.263Z,80.20
2023-04-29T23:25:36.134Z,80.10
2023-04-29T23:28:02.819Z,80.20
2023-04-29T23:30:29.603Z,80.30
2023-04-29T23:32:59.439Z,80.10
2023-04-29T23:35:27.131Z,79.80
2023-04-29T23:37:54.979Z,80.10
2023-04-29T23:40:21.654Z,80.20
2023-04-29T23:42:49.689Z,80.10
2023-04-29T23:45:17.560Z,80.30
2023-04-29T23:47:44.479Z,80.10
2023-04-29T23:50:11.149Z,80.50
2023-04-29T23:52:39.575Z,80.30
2023-04-29T23:55:06.608Z,80.30
2023-04-29T23:57:33.292Z,79.90
